Cleveland, Missouri
Current Conditions -  °F | °C
As of 8:53 PM on Sunday 23 Nov 2014 (Local Time) from KOJC Reporting Station
Light Rain Light Rain  
Wind Chill: 30°   Ceiling: 1500
Heat Index: 40°   Visibility: 9mi
Dew Point: 37°   Wind: 21mph
Humidity: 89%   Direction: 340°NNW
Pressure: 29.46"   Gusts: 31mph
Location:  38.68°N, 94.59°W
Report Text: KOJC 240253Z 34018G27KT 9SM -RA OVC015 04/03 A2946 RMK AO2 PK WND 35032/0211 SLP975 P0004 60013 T00440028 51025
Loading
Personal Weather Stations






























Interactive Weather Map New forecast layout! Learn more

10-Day Weather Forecast

Advertisements
Track Severe Weather on mobile